Time;durP1;ratioP1;P1;durP2;ratioP2;P2;SDS_P1;SDS_P2;PMS_P1;PMS_P2;Temp;Humidity;BMP_temperature;BMP_pressure;BME280_temperature;BME280_humidity;BME280_pressure;Samples;Min_cycle;Max_cycle;Signal;HPM_P1;HPM_P2
2022/10/30 00:02:26;;;;;;;;;;;;;;;21.80;46.96;99874.03;4473654;32;34414;-87
2022/10/30 00:04:54;;;;;;;;;;;;;;;21.70;46.98;99867.19;4475547;32;34488;-86
2022/10/30 00:07:21;;;;;;;;;;;;;;;21.57;47.32;99865.75;4475286;32;35230;-88
2022/10/30 00:09:48;;;;;;;;;;;;;;;21.70;46.98;99867.19;4471987;32;33546;-87
2022/10/30 00:12:15;;;;;;;;;;;;;;;21.70;47.00;99868.97;4472197;32;34284;-87
2022/10/30 00:14:43;;;;;;;;;;;;;;;21.88;46.65;99868.56;4471793;32;35172;-86
2022/10/30 00:17:10;;;;;;;;;;;;;;;21.31;47.89;99874.16;4472257;32;34569;-87
2022/10/30 00:19:38;;;;;;;;;;;;;;;21.68;46.93;99874.28;4472852;32;33514;-87
2022/10/30 00:22:05;;;;;;;;;;;;;;;21.67;47.07;99862.00;4472007;32;35066;-87
2022/10/30 00:24:31;;;;;;;;;;;;;;;21.53;47.32;99856.16;4481102;32;34408;-87
2022/10/30 00:26:58;;;;;;;;;;;;;;;21.54;47.15;99865.78;4471875;32;34490;-87
2022/10/30 00:29:25;;;;;;;;;;;;;;;21.58;46.94;99864.81;4478280;32;33462;-87
2022/10/30 00:31:52;;;;;;;;;;;;;;;20.82;48.91;99854.84;4480045;32;34921;-87
2022/10/30 00:34:20;;;;;;;;;;;;;;;21.05;48.59;99862.31;4487255;32;35382;-86
2022/10/30 00:36:47;;;;;;;;;;;;;;;21.09;48.58;99858.72;4476633;32;33835;-85
2022/10/30 00:39:15;;;;;;;;;;;;;;;21.09;48.50;99847.31;4471902;32;34232;-86
2022/10/30 00:41:43;;;;;;;;;;;;;;;21.07;48.54;99849.13;4471665;32;34216;-86
2022/10/30 00:44:29;;;;;;;;;;;;;;;21.42;47.56;99839.69;4471292;32;34389;-87
2022/10/30 00:46:57;;;;;;;;;;;;;;;21.80;46.27;99841.50;4471557;32;34482;-86
2022/10/30 00:49:25;;;;;;;;;;;;;;;20.82;48.89;99843.44;4484254;32;33287;-86
2022/10/30 00:51:52;;;;;;;;;;;;;;;21.29;47.86;99839.91;4486407;32;33955;-87
2022/10/30 00:54:20;;;;;;;;;;;;;;;21.44;47.51;99843.13;4472024;32;35131;-87
2022/10/30 00:56:47;;;;;;;;;;;;;;;21.36;47.63;99830.97;4457975;32;34361;-87
2022/10/30 00:59:17;;;;;;;;;;;;;;;21.41;47.73;99843.22;4456919;32;33607;-86
2022/10/30 01:01:44;;;;;;;;;;;;;;;21.03;48.42;99848.31;4474185;32;34293;-84
2022/10/30 01:04:11;;;;;;;;;;;;;;;20.51;49.74;99837.84;4466078;32;34450;-84
2022/10/30 01:06:39;;;;;;;;;;;;;;;20.85;49.11;99838.12;4479745;32;34675;-86
2022/10/30 01:09:07;;;;;;;;;;;;;;;21.21;48.27;99840.94;4472341;32;33153;-86
2022/10/30 01:11:34;;;;;;;;;;;;;;;21.25;48.03;99838.22;4485931;32;32595;-86
2022/10/30 01:14:03;;;;;;;;;;;;;;;20.63;49.62;99835.00;4478267;32;34285;-86
2022/10/30 01:16:36;;;;;;;;;;;;;;;19.84;51.70;99842.34;4473655;32;33696;-88
2022/10/30 01:19:04;;;;;;;;;;;;;;;20.11;51.04;99836.66;4468023;32;33523;-85
2022/10/30 01:21:43;;;;;;;;;;;;;;;20.24;50.75;99825.97;4460797;32;32283;-86
2022/10/30 01:24:34;;;;;;;;;;;;;;;20.14;50.91;99822.59;4460709;32;34293;-87
2022/10/30 01:27:01;;;;;;;;;;;;;;;20.50;50.10;99826.44;4455172;32;34455;-87
2022/10/30 01:29:49;;;;;;;;;;;;;;;20.67;49.50;99818.22;4469714;32;33921;-87
2022/10/30 01:32:23;;;;;;;;;;;;;;;21.04;48.35;99817.53;4452942;32;34101;-87
2022/10/30 01:35:09;;;;;;;;;;;;;;;21.09;48.26;99800.72;4467889;32;34269;-86
2022/10/30 01:37:49;;;;;;;;;;;;;;;21.04;48.50;99807.00;4469931;32;34140;-86
2022/10/30 01:40:16;;;;;;;;;;;;;;;20.98;48.38;99797.44;4479702;32;33450;-86
2022/10/30 01:42:49;;;;;;;;;;;;;;;20.97;48.57;99794.84;4453681;32;35042;-85
2022/10/30 01:45:18;;;;;;;;;;;;;;;21.14;48.28;99793.63;4455872;32;32546;-87
2022/10/30 01:48:04;;;;;;;;;;;;;;;21.61;46.93;99797.03;4478608;32;35047;-87
2022/10/30 01:50:37;;;;;;;;;;;;;;;21.20;47.69;99797.00;4483122;32;33652;-88
2022/10/30 01:53:15;;;;;;;;;;;;;;;21.03;48.13;99806.12;4476208;32;34837;-87
2022/10/30 01:55:49;;;;;;;;;;;;;;;21.00;48.39;99810.59;4459639;32;34694;-88
2022/10/30 01:58:18;;;;;;;;;;;;;;;21.18;47.87;99809.38;4467516;32;36434;-87
2022/10/30 02:00:50;;;;;;;;;;;;;;;20.70;49.12;99815.53;4479535;32;33427;-86
2022/10/30 02:03:18;;;;;;;;;;;;;;;20.33;50.11;99812.63;4456466;32;33799;-88
2022/10/30 02:05:47;;;;;;;;;;;;;;;20.48;49.94;99811.50;4477351;32;34861;-87
2022/10/30 02:08:16;;;;;;;;;;;;;;;20.76;49.27;99812.81;4481124;32;35077;-87
2022/10/30 02:10:44;;;;;;;;;;;;;;;21.05;48.41;99804.31;4474497;32;33528;-88
2022/10/30 02:13:11;;;;;;;;;;;;;;;20.94;48.72;99810.72;4454121;32;34371;-87
2022/10/30 02:15:40;;;;;;;;;;;;;;;20.89;48.51;99811.66;4475389;32;34337;-86
2022/10/30 02:18:08;;;;;;;;;;;;;;;20.79;48.97;99814.50;4464442;32;35111;-86
2022/10/30 02:20:35;;;;;;;;;;;;;;;21.45;46.74;99819.38;4468058;32;33994;-86
2022/10/30 02:23:03;;;;;;;;;;;;;;;20.37;49.31;99815.19;4467609;32;34187;-85
2022/10/30 02:25:31;;;;;;;;;;;;;;;20.35;49.65;99816.13;4476399;32;33903;-87
2022/10/30 02:27:59;;;;;;;;;;;;;;;20.69;48.99;99807.69;4474130;32;33906;-87
2022/10/30 02:30:26;;;;;;;;;;;;;;;21.07;48.09;99806.94;4470888;32;33231;-86
2022/10/30 02:32:53;;;;;;;;;;;;;;;20.88;48.31;99811.72;4453965;32;33767;-86
2022/10/30 02:35:21;;;;;;;;;;;;;;;21.26;47.63;99815.34;4474957;32;34208;-85
2022/10/30 02:37:48;;;;;;;;;;;;;;;20.84;48.42;99815.31;4483493;32;35046;-86
2022/10/30 02:40:16;;;;;;;;;;;;;;;20.82;48.53;99815.31;4476514;32;34523;-87
2022/10/30 02:42:43;;;;;;;;;;;;;;;20.97;48.05;99813.28;4483173;32;34270;-86
2022/10/30 02:45:10;;;;;;;;;;;;;;;21.18;47.67;99802.34;4483622;32;34434;-85
2022/10/30 02:47:38;;;;;;;;;;;;;;;20.73;48.68;99807.59;4483326;32;34186;-84
2022/10/30 02:50:05;;;;;;;;;;;;;;;20.85;48.27;99804.72;4482678;32;34259;-86
2022/10/30 02:52:36;;;;;;;;;;;;;;;20.76;48.57;99799.62;4483690;32;34237;-86
2022/10/30 02:55:04;;;;;;;;;;;;;;;20.40;49.25;99799.34;4471774;32;34289;-87
2022/10/30 02:57:34;;;;;;;;;;;;;;;20.37;49.40;99799.38;4482218;32;34540;-84
2022/10/30 03:00:01;;;;;;;;;;;;;;;20.73;48.54;99798.81;4481496;32;33598;-87
2022/10/30 03:02:29;;;;;;;;;;;;;;;20.26;49.58;99803.97;4461219;32;33811;-86
2022/10/30 03:04:56;;;;;;;;;;;;;;;20.21;49.79;99808.44;4481659;32;34293;-87
2022/10/30 03:07:24;;;;;;;;;;;;;;;20.49;49.20;99800.97;4467896;32;34438;-86
2022/10/30 03:09:53;;;;;;;;;;;;;;;20.76;48.23;99802.28;4470061;32;33444;-87
2022/10/30 03:12:20;;;;;;;;;;;;;;;20.30;49.37;99813.56;4482972;32;34880;-86
2022/10/30 03:14:47;;;;;;;;;;;;;;;19.68;51.09;99812.75;4481746;32;34298;-86
2022/10/30 03:17:15;;;;;;;;;;;;;;;20.05;50.33;99809.59;4469335;32;34434;-87
2022/10/30 03:19:42;;;;;;;;;;;;;;;19.87;50.43;99798.44;4468078;32;34382;-86
2022/10/30 03:22:09;;;;;;;;;;;;;;;19.61;51.31;99811.06;4483277;32;34118;-88
2022/10/30 03:24:37;;;;;;;;;;;;;;;20.06;49.70;99809.56;4473846;32;35254;-86
2022/10/30 03:27:04;;;;;;;;;;;;;;;20.21;49.48;99807.59;4477464;32;34218;-86
2022/10/30 03:29:31;;;;;;;;;;;;;;;20.07;50.06;99806.03;4455841;32;33585;-87
2022/10/30 03:31:59;;;;;;;;;;;;;;;20.56;49.04;99799.09;4463589;32;33729;-87
2022/10/30 03:34:28;;;;;;;;;;;;;;;20.46;49.31;99798.38;4467480;32;34274;-88
2022/10/30 03:36:55;;;;;;;;;;;;;;;20.44;49.33;99794.91;4477298;32;34329;-86
2022/10/30 03:39:22;;;;;;;;;;;;;;;19.01;52.54;99797.81;4483096;32;32888;-86
2022/10/30 03:41:49;;;;;;;;;;;;;;;19.80;50.83;99796.78;4471074;32;33654;-86
2022/10/30 03:44:17;;;;;;;;;;;;;;;19.61;51.42;99797.91;4467229;32;35151;-85
2022/10/30 03:46:44;;;;;;;;;;;;;;;19.87;50.94;99802.84;4466834;32;33701;-87
2022/10/30 03:49:12;;;;;;;;;;;;;;;20.37;49.71;99806.44;4473010;32;33055;-87
2022/10/30 03:51:40;;;;;;;;;;;;;;;19.19;52.12;99793.19;4471832;32;34085;-88
2022/10/30 03:54:07;;;;;;;;;;;;;;;19.90;50.78;99793.13;4466900;32;34152;-85
2022/10/30 03:56:35;;;;;;;;;;;;;;;20.12;49.79;99795.44;4476465;32;35078;-87
2022/10/30 03:59:02;;;;;;;;;;;;;;;19.97;50.23;99793.06;4477817;32;34152;-87
2022/10/30 04:01:30;;;;;;;;;;;;;;;19.68;51.25;99791.72;4481827;32;34033;-86
2022/10/30 04:03:58;;;;;;;;;;;;;;;19.38;52.21;99801.72;4482859;32;34178;-86
2022/10/30 04:06:26;;;;;;;;;;;;;;;19.10;52.72;99801.22;4481881;32;35064;-88
2022/10/30 04:08:55;;;;;;;;;;;;;;;19.72;51.05;99797.81;4466219;32;34092;-86
2022/10/30 04:11:22;;;;;;;;;;;;;;;19.69;50.94;99785.56;4472711;32;34531;-86
2022/10/30 04:13:50;;;;;;;;;;;;;;;19.15;52.71;99788.88;4478591;32;34437;-86
2022/10/30 04:16:17;;;;;;;;;;;;;;;19.47;51.85;99789.34;4452427;32;34874;-86
2022/10/30 04:18:44;;;;;;;;;;;;;;;19.41;52.01;99792.94;4453080;32;34355;-85
2022/10/30 04:21:11;;;;;;;;;;;;;;;19.32;51.69;99795.66;4466842;32;34129;-86
2022/10/30 04:23:39;;;;;;;;;;;;;;;19.44;51.23;99783.25;4466512;32;34050;-85
2022/10/30 04:26:08;;;;;;;;;;;;;;;19.26;52.15;99787.87;4466735;32;35064;-85
2022/10/30 04:28:35;;;;;;;;;;;;;;;19.56;51.21;99776.09;4466738;32;32740;-85
2022/10/30 04:31:02;;;;;;;;;;;;;;;19.44;51.73;99787.66;4463637;32;33628;-89
2022/10/30 04:33:31;;;;;;;;;;;;;;;19.87;50.74;99785.28;4450439;32;34185;-89
2022/10/30 04:35:59;;;;;;;;;;;;;;;18.62;53.74;99806.06;4466614;32;34370;-88
2022/10/30 04:38:26;;;;;;;;;;;;;;;18.85;53.16;99802.37;4466111;32;34278;-88
2022/10/30 04:40:55;;;;;;;;;;;;;;;19.00;52.62;99794.31;4466349;32;33820;-87
2022/10/30 04:43:25;;;;;;;;;;;;;;;19.22;52.15;99792.31;4463317;32;35391;-87
2022/10/30 04:45:52;;;;;;;;;;;;;;;19.30;51.67;99795.69;4453832;32;34014;-85
2022/10/30 04:48:20;;;;;;;;;;;;;;;19.19;51.64;99787.06;4481784;32;34408;-88
2022/10/30 04:50:47;;;;;;;;;;;;;;;18.88;52.33;99787.44;4481958;32;33551;-88
2022/10/30 04:53:17;;;;;;;;;;;;;;;19.35;51.29;99785.97;4481323;32;32821;-88
2022/10/30 04:55:44;;;;;;;;;;;;;;;19.80;50.18;99786.28;4471011;32;34437;-84
2022/10/30 04:58:12;;;;;;;;;;;;;;;20.23;49.15;99795.25;4462625;32;33979;-83
2022/10/30 05:00:40;;;;;;;;;;;;;;;20.30;48.42;99792.50;4468427;32;34852;-89
2022/10/30 05:03:08;;;;;;;;;;;;;;;20.19;48.84;99794.44;4454484;32;33788;-86
2022/10/30 05:05:35;;;;;;;;;;;;;;;20.03;49.34;99788.53;4454396;32;34747;-89
2022/10/30 05:08:03;;;;;;;;;;;;;;;20.13;48.91;99786.66;4468941;32;34301;-86
2022/10/30 05:10:30;;;;;;;;;;;;;;;20.47;48.26;99786.94;4471815;32;34954;-84
2022/10/30 05:12:58;;;;;;;;;;;;;;;20.64;47.85;99786.66;4483445;32;34883;-85
2022/10/30 05:15:26;;;;;;;;;;;;;;;20.25;48.32;99781.19;4484189;32;35488;-85
2022/10/30 05:17:53;;;;;;;;;;;;;;;19.78;49.58;99788.06;4468690;32;33015;-85
2022/10/30 05:20:21;;;;;;;;;;;;;;;19.53;50.40;99799.78;4468533;32;34099;-85
2022/10/30 05:22:54;;;;;;;;;;;;;;;19.66;50.18;99801.38;4468398;32;35007;-87
2022/10/30 05:25:22;;;;;;;;;;;;;;;19.69;50.22;99794.31;4468558;32;34478;-88
2022/10/30 05:27:50;;;;;;;;;;;;;;;19.20;51.45;99805.44;4468081;32;34345;-85
2022/10/30 05:30:17;;;;;;;;;;;;;;;19.24;51.26;99802.78;4468484;32;34998;-85
2022/10/30 05:32:45;;;;;;;;;;;;;;;19.55;50.58;99809.41;4469086;32;33839;-85
2022/10/30 05:35:12;;;;;;;;;;;;;;;19.89;49.56;99807.19;4468444;32;33880;-86
2022/10/30 05:37:40;;;;;;;;;;;;;;;19.52;50.35;99816.47;4468568;32;33588;-87
2022/10/30 05:40:07;;;;;;;;;;;;;;;19.43;50.58;99818.34;4468608;32;33659;-85
2022/10/30 05:42:34;;;;;;;;;;;;;;;19.21;51.12;99827.38;4468240;32;33800;-85
2022/10/30 05:45:02;;;;;;;;;;;;;;;19.38;50.96;99829.78;4483730;32;33981;-85
2022/10/30 05:47:30;;;;;;;;;;;;;;;19.39;50.81;99842.03;4470182;32;33723;-85
2022/10/30 05:49:57;;;;;;;;;;;;;;;19.62;50.25;99836.50;4483101;32;33898;-84
2022/10/30 05:52:25;;;;;;;;;;;;;;;19.74;49.86;99835.50;4468156;32;35048;-84
2022/10/30 05:54:52;;;;;;;;;;;;;;;19.79;49.81;99825.78;4468418;32;34083;-85
2022/10/30 05:57:20;;;;;;;;;;;;;;;19.70;49.92;99821.53;4474692;32;34157;-85
2022/10/30 05:59:47;;;;;;;;;;;;;;;20.03;49.03;99814.00;4483883;32;34571;-85
2022/10/30 06:02:17;;;;;;;;;;;;;;;20.28;48.41;99814.50;4483737;32;34131;-84
2022/10/30 06:04:45;;;;;;;;;;;;;;;20.08;48.73;99822.72;4483259;32;35072;-84
2022/10/30 06:07:13;;;;;;;;;;;;;;;19.49;50.17;99816.50;4476400;32;33596;-84
2022/10/30 06:09:40;;;;;;;;;;;;;;;19.64;50.03;99818.97;4468087;32;34977;-84
2022/10/30 06:12:08;;;;;;;;;;;;;;;19.88;49.47;99823.84;4468132;32;34782;-84
2022/10/30 06:14:35;;;;;;;;;;;;;;;19.78;49.65;99821.41;4468211;32;35017;-85
2022/10/30 06:17:03;;;;;;;;;;;;;;;19.89;49.53;99812.47;4468125;32;33435;-83
2022/10/30 06:19:31;;;;;;;;;;;;;;;20.19;48.93;99818.13;4467796;32;34332;-84
2022/10/30 06:21:59;;;;;;;;;;;;;;;20.42;48.22;99818.63;4475219;32;35072;-83
2022/10/30 06:24:26;;;;;;;;;;;;;;;20.28;48.55;99825.91;4483467;32;35122;-84
2022/10/30 06:26:54;;;;;;;;;;;;;;;20.45;48.03;99828.22;4483838;32;33322;-85
2022/10/30 06:29:22;;;;;;;;;;;;;;;20.14;48.81;99827.88;4483525;32;34221;-85
2022/10/30 06:31:49;;;;;;;;;;;;;;;20.17;48.84;99833.97;4477095;32;34857;-84
2022/10/30 06:34:17;;;;;;;;;;;;;;;20.45;48.14;99822.97;4468113;32;35000;-85
2022/10/30 06:36:44;;;;;;;;;;;;;;;19.61;50.20;99822.47;4468199;32;33360;-84
2022/10/30 06:39:11;;;;;;;;;;;;;;;20.17;49.07;99820.78;4467415;32;34071;-85
2022/10/30 06:41:40;;;;;;;;;;;;;;;20.30;48.70;99825.84;4467996;32;33730;-84
2022/10/30 06:44:07;;;;;;;;;;;;;;;20.39;48.57;99828.34;4467751;32;33978;-85
2022/10/30 06:46:34;;;;;;;;;;;;;;;20.29;48.66;99832.03;4473379;32;33565;-85
2022/10/30 06:49:02;;;;;;;;;;;;;;;20.37;48.37;99838.91;4483708;32;33770;-85
2022/10/30 06:51:29;;;;;;;;;;;;;;;20.61;47.73;99844.69;4483533;32;33923;-85
2022/10/30 06:53:57;;;;;;;;;;;;;;;20.56;47.93;99842.13;4483139;32;34339;-85
2022/10/30 06:56:25;;;;;;;;;;;;;;;20.68;47.93;99843.66;4479082;32;33628;-84
2022/10/30 06:58:52;;;;;;;;;;;;;;;20.88;47.61;99838.94;4467863;32;35172;-85
2022/10/30 07:01:19;;;;;;;;;;;;;;;20.93;47.43;99846.75;4453596;32;33846;-85
2022/10/30 07:03:50;;;;;;;;;;;;;;;20.79;47.80;99844.34;4467655;32;34481;-85
2022/10/30 07:06:17;;;;;;;;;;;;;;;20.94;47.53;99853.75;4467603;32;34439;-86
2022/10/30 07:08:45;;;;;;;;;;;;;;;21.01;47.27;99850.09;4481434;32;33750;-86
2022/10/30 07:11:12;;;;;;;;;;;;;;;21.02;47.11;99843.91;4483568;32;35559;-90
2022/10/30 07:13:40;;;;;;;;;;;;;;;21.02;47.29;99846.56;4463903;32;34173;-87
2022/10/30 07:16:07;;;;;;;;;;;;;;;21.27;46.83;99840.81;4466143;32;33629;-86
2022/10/30 07:18:34;;;;;;;;;;;;;;;20.97;47.73;99840.50;4453438;32;33836;-87
2022/10/30 07:21:02;;;;;;;;;;;;;;;20.75;48.10;99831.25;4467500;32;34285;-87
2022/10/30 07:23:30;;;;;;;;;;;;;;;21.17;47.30;99840.13;4467346;32;35024;-87
2022/10/30 07:25:58;;;;;;;;;;;;;;;21.13;46.96;99833.16;4467179;32;34447;-88
2022/10/30 07:28:30;;;;;;;;;;;;;;;20.68;48.06;99840.16;4459563;32;34682;-86
2022/10/30 07:31:00;;;;;;;;;;;;;;;20.94;47.39;99843.19;4467362;32;34235;-85
2022/10/30 07:33:28;;;;;;;;;;;;;;;20.99;47.24;99851.06;4467590;32;33697;-84
2022/10/30 07:35:55;;;;;;;;;;;;;;;21.21;46.97;99848.84;4467075;32;33713;-85
2022/10/30 07:38:23;;;;;;;;;;;;;;;21.09;47.14;99844.69;4467226;32;35193;-85
2022/10/30 07:40:51;;;;;;;;;;;;;;;20.84;47.65;99852.19;4467579;32;34924;-85
2022/10/30 07:43:18;;;;;;;;;;;;;;;21.27;46.77;99851.38;4467694;32;34459;-84
2022/10/30 07:45:46;;;;;;;;;;;;;;;21.46;46.42;99851.91;4466924;32;33759;-86
2022/10/30 07:48:13;;;;;;;;;;;;;;;21.04;46.99;99860.59;4467759;32;34263;-88
2022/10/30 07:50:42;;;;;;;;;;;;;;;21.12;46.80;99857.81;4467520;32;35105;-91
2022/10/30 07:53:09;;;;;;;;;;;;;;;21.14;46.72;99851.63;4467058;32;34774;-91
2022/10/30 07:55:36;;;;;;;;;;;;;;;21.19;46.58;99858.56;4467748;32;34470;-91
2022/10/30 07:58:06;;;;;;;;;;;;;;;20.69;47.43;99858.59;4464532;32;33885;-90
2022/10/30 08:00:35;;;;;;;;;;;;;;;21.23;46.43;99852.34;4467443;32;34110;-91
2022/10/30 08:03:02;;;;;;;;;;;;;;;21.57;45.80;99855.19;4472137;32;34190;-91
2022/10/30 08:05:32;;;;;;;;;;;;;;;21.44;46.18;99862.50;4472242;32;33114;-90
2022/10/30 08:07:59;;;;;;;;;;;;;;;21.56;45.58;99858.72;4467081;32;34664;-91
2022/10/30 08:10:28;;;;;;;;;;;;;;;20.39;48.30;99859.97;4466703;32;34379;-88
2022/10/30 08:12:56;;;;;;;;;;;;;;;20.54;48.03;99865.00;4466872;32;34169;-88
2022/10/30 08:15:23;;;;;;;;;;;;;;;20.62;48.20;99863.09;4466352;32;33332;-91
2022/10/30 08:17:51;;;;;;;;;;;;;;;19.12;52.30;99867.75;4467079;32;33513;-89
2022/10/30 08:20:20;;;;;;;;;;;;;;;19.59;50.93;99865.47;4467753;32;33910;-86
2022/10/30 08:22:47;;;;;;;;;;;;;;;20.73;48.23;99862.94;4455892;32;34160;-88
2022/10/30 08:25:16;;;;;;;;;;;;;;;20.90;47.88;99858.19;4471069;32;32359;-85
2022/10/30 08:27:50;;;;;;;;;;;;;;;21.24;46.98;99865.47;4483797;32;33715;-85
2022/10/30 08:30:17;;;;;;;;;;;;;;;21.49;46.29;99865.03;4484854;32;33945;-91
2022/10/30 08:32:45;;;;;;;;;;;;;;;21.23;46.90;99860.25;4481838;32;34155;-86
2022/10/30 08:35:16;;;;;;;;;;;;;;;20.52;48.43;99858.00;4469108;32;33055;-90
2022/10/30 08:37:46;;;;;;;;;;;;;;;20.79;47.77;99862.78;4453219;32;34184;-89
2022/10/30 08:40:14;;;;;;;;;;;;;;;20.96;47.36;99859.00;4453661;32;34092;-91
2022/10/30 08:42:41;;;;;;;;;;;;;;;21.02;47.44;99864.16;4454032;32;34275;-91
2022/10/30 08:45:09;;;;;;;;;;;;;;;21.12;47.09;99868.34;4459145;32;34027;-91
2022/10/30 08:47:37;;;;;;;;;;;;;;;20.86;47.76;99864.44;4470298;32;34449;-89
2022/10/30 08:50:05;;;;;;;;;;;;;;;20.61;48.47;99866.66;4484168;32;34180;-89
2022/10/30 08:52:33;;;;;;;;;;;;;;;21.26;46.41;99855.78;4484447;32;34881;-91
2022/10/30 08:55:00;;;;;;;;;;;;;;;20.34;49.07;99865.31;4468080;32;32477;-91
2022/10/30 08:57:28;;;;;;;;;;;;;;;20.92;47.70;99862.59;4468859;32;34336;-91
2022/10/30 08:59:56;;;;;;;;;;;;;;;21.33;46.58;99861.84;4447535;32;34302;-89
2022/10/30 09:02:25;;;;;;;;;;;;;;;21.12;47.49;99858.69;4453043;32;32870;-86
2022/10/30 09:04:57;;;;;;;;;;;;;;;20.61;48.47;99858.75;4454755;32;36540;-89
2022/10/30 09:07:26;;;;;;;;;;;;;;;20.86;48.26;99851.25;4484149;32;34148;-85
2022/10/30 09:09:55;;;;;;;;;;;;;;;20.69;48.52;99855.97;4484118;32;34490;-87
2022/10/30 09:12:22;;;;;;;;;;;;;;;21.11;47.59;99851.69;4484469;32;33778;-88
2022/10/30 09:14:50;;;;;;;;;;;;;;;21.53;46.70;99853.50;4484244;32;33581;-92
2022/10/30 09:17:17;;;;;;;;;;;;;;;21.25;47.06;99858.44;4464027;32;34153;-88
2022/10/30 09:19:45;;;;;;;;;;;;;;;20.46;48.90;99869.50;4452640;32;34398;-91
2022/10/30 09:22:19;;;;;;;;;;;;;;;20.42;49.27;99873.09;4452920;32;34165;-91
2022/10/30 09:24:46;;;;;;;;;;;;;;;20.72;48.71;99868.19;4453102;32;34308;-90
2022/10/30 09:27:15;;;;;;;;;;;;;;;20.77;48.41;99861.97;4480457;32;34578;-87
2022/10/30 09:29:43;;;;;;;;;;;;;;;21.32;47.03;99858.28;4476672;32;34181;-87
2022/10/30 09:32:12;;;;;;;;;;;;;;;20.88;48.01;99861.78;4484301;32;34293;-86
2022/10/30 09:34:40;;;;;;;;;;;;;;;20.58;48.80;99864.06;4483981;32;34206;-86
2022/10/30 09:37:08;;;;;;;;;;;;;;;20.62;48.87;99856.97;4478453;32;34944;-89
2022/10/30 09:39:35;;;;;;;;;;;;;;;20.73;48.33;99860.28;4467606;32;34376;-86
2022/10/30 09:42:22;;;;;;;;;;;;;;;21.20;47.45;99857.66;4468086;32;33828;-86
2022/10/30 09:45:01;;;;;;;;;;;;;;;21.28;47.15;99853.97;4467835;32;34556;-87
2022/10/30 09:48:08;;;;;;;;;;;;;;;20.75;48.26;99847.94;4456331;32;35023;-87
2022/10/30 09:50:42;;;;;;;;;;;;;;;21.15;46.94;99852.47;4468261;32;34260;-87
2022/10/30 09:53:14;;;;;;;;;;;;;;;20.11;50.03;99849.84;4454524;32;34219;-88
2022/10/30 09:56:01;;;;;;;;;;;;;;;20.63;48.80;99837.62;4454542;32;33639;-88
2022/10/30 09:58:47;;;;;;;;;;;;;;;21.27;47.43;99841.69;4466511;32;33697;-87
2022/10/30 10:01:16;;;;;;;;;;;;;;;20.46;49.50;99844.94;4452767;32;34141;-88
2022/10/30 10:04:05;;;;;;;;;;;;;;;20.59;49.45;99841.22;4438606;32;34173;-87
2022/10/30 10:06:33;;;;;;;;;;;;;;;20.82;48.66;99836.41;4428208;32;33517;-86
2022/10/30 10:09:03;;;;;;;;;;;;;;;21.06;48.09;99836.81;4438745;32;34379;-87
2022/10/30 10:11:36;;;;;;;;;;;;;;;20.79;48.34;99839.06;4452719;32;33894;-88
2022/10/30 10:14:07;;;;;;;;;;;;;;;20.27;49.73;99839.09;4460216;32;34459;-87
2022/10/30 10:16:35;;;;;;;;;;;;;;;20.35;49.81;99832.78;4441295;32;34739;-87
2022/10/30 10:19:12;;;;;;;;;;;;;;;19.40;52.18;99839.41;4453924;32;34211;-86
2022/10/30 10:21:41;;;;;;;;;;;;;;;20.13;50.55;99831.41;4467565;32;33798;-88
2022/10/30 10:24:15;;;;;;;;;;;;;;;19.85;51.36;99837.09;4452272;32;33787;-86
2022/10/30 10:26:48;;;;;;;;;;;;;;;19.93;51.06;99829.94;4452195;32;34194;-89
2022/10/30 10:29:15;;;;;;;;;;;;;;;19.88;51.27;99823.00;4459610;32;33864;-88
2022/10/30 10:31:48;;;;;;;;;;;;;;;20.52;49.59;99821.13;4483541;32;33861;-88
2022/10/30 10:34:25;;;;;;;;;;;;;;;21.00;48.91;99821.16;4483480;32;35044;-88
2022/10/30 10:36:53;;;;;;;;;;;;;;;21.08;48.77;99829.78;4483632;32;34398;-86
2022/10/30 10:39:52;;;;;;;;;;;;;;;21.02;48.64;99819.31;4483408;32;34324;-87
2022/10/30 10:42:33;;;;;;;;;;;;;;;21.42;47.71;99822.06;4435110;32;34201;-87
2022/10/30 10:45:27;;;;;;;;;;;;;;;21.47;47.89;99819.34;4460146;32;34787;-89
2022/10/30 10:48:06;;;;;;;;;;;;;;;21.42;48.20;99813.28;4462565;32;33548;-89
2022/10/30 10:50:35;;;;;;;;;;;;;;;21.64;47.52;99814.56;4453741;32;35115;-91
2022/10/30 10:53:10;;;;;;;;;;;;;;;21.11;48.78;99814.75;4465232;32;34011;-90
2022/10/30 10:55:37;;;;;;;;;;;;;;;21.41;47.94;99815.06;4469356;32;35214;-88
2022/10/30 10:58:06;;;;;;;;;;;;;;;21.12;48.53;99815.63;4483532;32;33783;-87
2022/10/30 11:00:33;;;;;;;;;;;;;;;20.81;48.58;99816.22;4469091;32;33974;-88
2022/10/30 11:03:13;;;;;;;;;;;;;;;21.27;47.71;99810.03;4469064;32;35105;-89
2022/10/30 11:05:59;;;;;;;;;;;;;;;20.49;49.87;99810.63;4469407;32;34093;-89
2022/10/30 11:08:28;;;;;;;;;;;;;;;21.09;48.41;99815.69;4447300;32;32812;-86
2022/10/30 11:10:56;;;;;;;;;;;;;;;20.98;48.47;99813.25;4476124;32;34813;-87
2022/10/30 11:13:49;;;;;;;;;;;;;;;21.26;47.82;99803.03;4464505;32;33544;-85
2022/10/30 11:16:40;;;;;;;;;;;;;;;21.46;47.61;99792.09;4449113;32;33853;-88
2022/10/30 11:19:07;;;;;;;;;;;;;;;21.41;47.59;99795.75;4447326;32;34201;-86
2022/10/30 11:21:37;;;;;;;;;;;;;;;21.51;47.73;99797.25;4437884;32;34007;-86
2022/10/30 11:24:08;;;;;;;;;;;;;;;21.91;46.69;99793.72;4452000;32;34285;-88
2022/10/30 11:26:35;;;;;;;;;;;;;;;21.66;46.63;99786.38;4443525;32;34609;-85
2022/10/30 11:29:12;;;;;;;;;;;;;;;21.16;48.29;99792.69;4455144;32;34483;-86
2022/10/30 11:31:40;;;;;;;;;;;;;;;20.96;48.82;99793.97;4451821;32;34878;-86
2022/10/30 11:34:17;;;;;;;;;;;;;;;20.40;50.24;99796.72;4451980;32;33988;-87
2022/10/30 11:36:45;;;;;;;;;;;;;;;20.24;50.92;99797.88;4451830;32;35225;-86
2022/10/30 11:39:28;;;;;;;;;;;;;;;20.60;50.33;99793.75;4451648;32;33367;-87
2022/10/30 11:42:14;;;;;;;;;;;;;;;21.11;49.17;99790.16;4454768;32;35034;-86
2022/10/30 11:44:42;;;;;;;;;;;;;;;21.51;47.96;99787.56;4451544;32;34325;-86
2022/10/30 11:47:10;;;;;;;;;;;;;;;21.81;46.83;99785.16;4437679;32;34123;-87
2022/10/30 11:49:40;;;;;;;;;;;;;;;21.67;47.19;99774.94;4424888;32;33049;-86
2022/10/30 11:52:08;;;;;;;;;;;;;;;21.99;46.18;99781.22;4451514;32;34154;-87
2022/10/30 11:54:36;;;;;;;;;;;;;;;21.34;48.19;99773.91;4451757;32;34396;-89
2022/10/30 11:57:03;;;;;;;;;;;;;;;21.51;48.21;99773.50;4437368;32;34602;-87
2022/10/30 11:59:31;;;;;;;;;;;;;;;22.02;46.38;99771.44;4451469;32;33749;-87
2022/10/30 12:02:02;;;;;;;;;;;;;;;21.13;48.68;99769.91;4436639;32;33688;-87
2022/10/30 12:04:31;;;;;;;;;;;;;;;19.66;52.95;99785.59;4452050;32;34378;-87
2022/10/30 12:07:07;;;;;;;;;;;;;;;20.65;50.67;99773.47;4466973;32;34349;-86
2022/10/30 12:09:42;;;;;;;;;;;;;;;21.20;49.09;99779.41;4467059;32;33352;-87
2022/10/30 12:12:10;;;;;;;;;;;;;;;21.36;48.74;99772.06;4453104;32;34006;-87
2022/10/30 12:14:38;;;;;;;;;;;;;;;22.04;46.80;99766.97;4452723;32;34208;-87
2022/10/30 12:17:05;;;;;;;;;;;;;;;21.63;47.97;99765.34;4466731;32;34864;-88
2022/10/30 12:19:32;;;;;;;;;;;;;;;21.46;48.50;99755.16;4466383;32;33746;-89
2022/10/30 12:22:00;;;;;;;;;;;;;;;21.60;47.90;99754.84;4452857;32;33731;-88
2022/10/30 12:24:45;;;;;;;;;;;;;;;21.89;47.53;99756.78;4452678;32;35125;-89
2022/10/30 12:27:12;;;;;;;;;;;;;;;22.36;46.00;99751.28;4466675;32;34528;-88
2022/10/30 12:30:03;;;;;;;;;;;;;;;22.07;46.63;99755.50;4466678;32;33477;-89
2022/10/30 12:32:57;;;;;;;;;;;;;;;21.92;46.83;99762.00;4466823;32;34102;-87
2022/10/30 12:35:34;;;;;;;;;;;;;;;21.20;49.03;99762.72;4452485;32;35150;-89
2022/10/30 12:38:01;;;;;;;;;;;;;;;21.54;48.25;99757.63;4466830;32;35526;-88
2022/10/30 12:40:29;;;;;;;;;;;;;;;21.91;47.58;99769.97;4452539;32;32112;-88
2022/10/30 12:43:04;;;;;;;;;;;;;;;21.41;48.25;99767.59;4466527;32;34020;-89
2022/10/30 12:45:40;;;;;;;;;;;;;;;21.74;47.47;99762.44;4452262;32;34174;-89
2022/10/30 12:48:11;;;;;;;;;;;;;;;21.17;48.80;99763.66;4440152;32;34007;-88
2022/10/30 12:50:43;;;;;;;;;;;;;;;21.20;48.71;99766.22;4437015;32;33227;-87
2022/10/30 12:53:13;;;;;;;;;;;;;;;21.61;47.55;99765.37;4436915;32;33939;-89
2022/10/30 12:55:45;;;;;;;;;;;;;;;22.15;45.87;99768.53;4450774;32;34310;-89
2022/10/30 12:58:31;;;;;;;;;;;;;;;21.19;47.78;99776.81;4436641;32;34326;-89
2022/10/30 13:01:17;;;;;;;;;;;;;;;21.04;48.63;99775.38;4450799;32;33033;-89
2022/10/30 13:03:49;;;;;;;;;;;;;;;21.46;47.56;99767.47;4460719;32;34013;-90